createdAt,value
2019-05-06T00:02:02.019Z,100749.23
2019-05-06T00:04:34.066Z,100750.55
2019-05-06T00:07:05.704Z,100747.96
2019-05-06T00:09:37.021Z,100742.66
2019-05-06T00:12:08.701Z,100745.20
2019-05-06T00:14:39.938Z,100747.45
2019-05-06T00:17:11.566Z,100746.23
2019-05-06T00:19:44.746Z,100743.89
2019-05-06T00:22:17.181Z,100749.70
2019-05-06T00:25:00.163Z,100749.70
2019-05-06T00:27:49.353Z,100752.50
2019-05-06T00:30:20.814Z,100753.82
2019-05-06T00:32:53.824Z,100755.09
2019-05-06T00:35:25.272Z,100759.46
2019-05-06T00:37:56.693Z,100758.61
2019-05-06T00:40:35.633Z,100768.38
2019-05-06T00:43:08.909Z,100760.09
2019-05-06T00:45:40.358Z,100759.25
2019-05-06T00:48:13.850Z,100759.20
2019-05-06T00:50:44.582Z,100769.77
2019-05-06T00:53:20.257Z,100764.05
2019-05-06T00:55:53.666Z,100762.27
2019-05-06T00:58:24.845Z,100768.41
2019-05-06T01:00:56.541Z,100764.52
2019-05-06T01:03:27.837Z,100767.98
2019-05-06T01:05:59.169Z,100767.52
2019-05-06T01:08:30.466Z,100766.20
2019-05-06T01:11:04.038Z,100770.20
2019-05-06T01:13:43.803Z,100764.84
2019-05-06T01:16:16.031Z,100770.58
2019-05-06T01:18:47.256Z,100771.42
2019-05-06T01:21:18.577Z,100767.91
2019-05-06T01:23:49.917Z,100774.05
2019-05-06T01:26:21.223Z,100777.15
2019-05-06T01:28:54.544Z,100771.89
2019-05-06T01:31:39.490Z,100770.62
2019-05-06T01:33:58.703Z,100771.89
2019-05-06T01:36:30.035Z,100771.05
2019-05-06T01:39:17.938Z,100772.02
2019-05-06T01:41:56.831Z,100774.19
2019-05-06T01:44:28.265Z,100776.39
2019-05-06T01:46:59.594Z,100781.18
2019-05-06T01:49:30.922Z,100779.02
2019-05-06T01:52:04.093Z,100781.56
2019-05-06T01:54:35.584Z,100788.14
2019-05-06T01:57:06.955Z,100788.94
2019-05-06T01:59:38.280Z,100796.73
2019-05-06T02:02:09.666Z,100790.97
2019-05-06T02:04:41.058Z,100783.97
2019-05-06T02:07:14.482Z,100790.88
2019-05-06T02:09:45.895Z,100789.56
2019-05-06T02:12:18.199Z,100788.72
2019-05-06T02:14:49.670Z,100790.50
2019-05-06T02:17:20.983Z,100792.16
2019-05-06T02:19:54.454Z,100797.45
2019-05-06T02:22:27.053Z,100797.03
2019-05-06T02:25:04.479Z,100795.49
2019-05-06T02:27:42.190Z,100798.50
2019-05-06T02:30:18.557Z,100806.67
2019-05-06T02:32:51.614Z,100806.06
2019-05-06T02:35:26.297Z,100804.75
2019-05-06T02:37:57.634Z,100809.96
2019-05-06T02:40:33.256Z,100811.56
2019-05-06T02:43:03.949Z,100811.47
2019-05-06T02:45:35.333Z,100810.48
2019-05-06T02:48:13.803Z,100810.34
2019-05-06T02:50:43.932Z,100814.28
2019-05-06T02:53:16.988Z,100816.44
2019-05-06T02:55:48.399Z,100819.12
2019-05-06T02:58:19.767Z,100815.55
2019-05-06T03:00:53.713Z,100812.45
2019-05-06T03:03:24.284Z,100816.34
2019-05-06T03:05:55.517Z,100810.95
2019-05-06T03:08:26.902Z,100818.83
2019-05-06T03:10:58.275Z,100811.70
2019-05-06T03:13:34.003Z,100814.29
2019-05-06T03:16:05.807Z,100816.45
2019-05-06T03:18:37.419Z,100808.47
2019-05-06T03:21:13.547Z,100815.88
2019-05-06T03:23:43.835Z,100814.89
2019-05-06T03:26:15.318Z,100816.85
2019-05-06T03:28:46.653Z,100812.48
2019-05-06T03:31:17.945Z,100815.91
2019-05-06T03:34:09.245Z,100809.24
2019-05-06T03:36:27.279Z,100809.98
2019-05-06T03:38:55.407Z,100810.41
2019-05-06T03:41:26.958Z,100808.20
2019-05-06T03:43:58.279Z,100805.53
2019-05-06T03:46:33.611Z,100810.63
2019-05-06T03:49:06.130Z,100812.91
2019-05-06T03:51:37.867Z,100816.74
2019-05-06T03:54:12.648Z,100814.48
2019-05-06T03:56:43.721Z,100814.75
2019-05-06T03:59:17.849Z,100826.67
2019-05-06T04:01:49.189Z,100817.16
2019-05-06T04:04:23.248Z,100825.52
2019-05-06T04:06:54.022Z,100832.29
2019-05-06T04:09:27.301Z,100828.14
2019-05-06T04:11:59.394Z,100836.96
2019-05-06T04:14:33.804Z,100837.91
2019-05-06T04:17:15.418Z,100841.05
2019-05-06T04:19:57.582Z,100845.41
2019-05-06T04:22:36.918Z,100840.29
2019-05-06T04:25:14.001Z,100848.73
2019-05-06T04:27:49.678Z,100856.45
2019-05-06T04:30:24.359Z,100853.30
2019-05-06T04:32:55.120Z,100852.46
2019-05-06T04:35:26.552Z,100851.52
2019-05-06T04:37:58.129Z,100857.13
2019-05-06T04:40:32.952Z,100861.43
2019-05-06T04:43:03.621Z,100860.17
2019-05-06T04:45:37.800Z,100866.31
2019-05-06T04:48:13.955Z,100868.88
2019-05-06T04:50:44.562Z,100867.87
2019-05-06T04:53:16.487Z,100866.63
2019-05-06T04:55:47.820Z,100871.67
2019-05-06T04:58:19.248Z,100871.67
2019-05-06T05:00:53.105Z,100874.29
2019-05-06T05:03:24.866Z,100874.88
2019-05-06T05:05:56.611Z,100875.19
2019-05-06T05:08:36.900Z,100880.44
2019-05-06T05:11:12.913Z,100879.17
2019-05-06T05:13:52.960Z,100885.90
2019-05-06T05:16:27.565Z,100887.80
2019-05-06T05:19:06.369Z,100884.33
2019-05-06T05:21:37.892Z,100899.28
2019-05-06T05:24:09.344Z,100894.87
2019-05-06T05:26:44.109Z,100894.77
2019-05-06T05:29:14.584Z,100893.23
2019-05-06T05:31:46.117Z,100897.86
2019-05-06T05:34:17.599Z,100906.05
2019-05-06T05:36:49.047Z,100909.90
2019-05-06T05:39:22.283Z,100914.56
2019-05-06T05:41:55.434Z,100915.08
2019-05-06T05:44:34.443Z,100917.71
2019-05-06T05:47:05.965Z,100918.33
2019-05-06T05:49:54.815Z,100918.25
2019-05-06T05:52:26.318Z,100920.42
2019-05-06T05:54:57.653Z,100927.23
2019-05-06T05:57:28.965Z,100931.13
2019-05-06T06:00:00.431Z,100934.04
2019-05-06T06:02:33.284Z,100933.86
2019-05-06T06:05:06.631Z,100929.69
2019-05-06T06:07:38.253Z,100934.61
2019-05-06T06:10:22.645Z,100927.05
2019-05-06T06:12:56.175Z,100932.50
2019-05-06T06:15:27.346Z,100928.70
2019-05-06T06:17:59.120Z,100931.45
2019-05-06T06:20:48.063Z,100930.08
2019-05-06T06:23:24.146Z,100926.27
2019-05-06T06:25:55.473Z,100924.23
2019-05-06T06:28:26.936Z,100925.42
2019-05-06T06:31:16.267Z,100932.69
2019-05-06T06:33:49.162Z,100926.02
2019-05-06T06:36:28.194Z,100932.22
2019-05-06T06:39:04.229Z,100931.06
2019-05-06T06:41:37.157Z,100940.16
2019-05-06T06:44:10.375Z,100934.50
2019-05-06T06:46:42.934Z,100926.06
2019-05-06T06:49:14.385Z,100929.20
2019-05-06T06:51:46.106Z,100930.56
2019-05-06T06:54:17.402Z,100931.53
2019-05-06T06:57:04.658Z,100933.28
2019-05-06T06:59:32.689Z,100926.30
2019-05-06T07:02:05.767Z,100929.44
2019-05-06T07:04:39.589Z,100924.05
2019-05-06T07:07:12.929Z,100919.17
2019-05-06T07:09:44.596Z,100915.22
2019-05-06T07:12:15.937Z,100917.86
2019-05-06T07:14:47.300Z,100922.69
2019-05-06T07:17:18.615Z,100919.03
2019-05-06T07:20:02.774Z,100915.70
2019-05-06T07:22:37.298Z,100928.30
2019-05-06T07:25:10.079Z,100925.30
2019-05-06T07:27:42.057Z,100931.34
2019-05-06T07:30:14.127Z,100926.23
2019-05-06T07:32:45.366Z,100931.02
2019-05-06T07:35:16.820Z,100933.98
2019-05-06T07:37:48.213Z,100933.01
2019-05-06T07:40:21.559Z,100937.28
2019-05-06T07:42:54.492Z,100934.36
2019-05-06T07:45:27.489Z,100937.83
2019-05-06T07:48:00.400Z,100938.60
2019-05-06T07:50:33.226Z,100931.52
2019-05-06T07:53:08.071Z,100938.33
2019-05-06T07:55:42.384Z,100934.65
2019-05-06T07:58:14.056Z,100938.44
2019-05-06T08:00:45.364Z,100936.86
2019-05-06T08:03:16.677Z,100935.25
2019-05-06T08:05:58.062Z,100931.87
2019-05-06T08:08:23.052Z,100930.50
2019-05-06T08:10:54.280Z,100939.84
2019-05-06T08:13:25.631Z,100939.67
2019-05-06T08:15:57.066Z,100936.51
2019-05-06T08:18:28.415Z,100939.62
2019-05-06T08:21:02.473Z,100928.23
2019-05-06T08:23:48.795Z,100934.73
2019-05-06T08:26:22.232Z,100941.35
2019-05-06T08:28:53.338Z,100942.53
2019-05-06T08:31:27.637Z,100932.59
2019-05-06T08:33:58.889Z,100930.11
2019-05-06T08:36:42.760Z,100935.17
2019-05-06T08:39:14.735Z,100931.59
2019-05-06T08:41:46.061Z,100931.61
2019-05-06T08:44:17.531Z,100936.38
2019-05-06T08:46:48.945Z,100932.16
2019-05-06T08:49:22.413Z,100930.06
2019-05-06T08:51:57.857Z,100931.87
2019-05-06T08:54:45.559Z,100920.70
2019-05-06T08:57:16.956Z,100921.55
2019-05-06T08:59:48.239Z,100921.20
2019-05-06T09:02:22.850Z,100922.55
2019-05-06T09:04:54.295Z,100916.31
2019-05-06T09:07:26.714Z,100913.91
2019-05-06T09:09:58.108Z,100919.17
2019-05-06T09:12:29.375Z,100917.36
2019-05-06T09:15:03.271Z,100924.06
2019-05-06T09:17:33.900Z,100921.37
2019-05-06T09:20:08.146Z,100912.61
2019-05-06T09:22:39.546Z,100909.73
2019-05-06T09:25:12.833Z,100917.14
2019-05-06T09:27:46.639Z,100918.89
2019-05-06T09:30:22.950Z,100919.59
2019-05-06T09:32:54.371Z,100914.25
2019-05-06T09:35:25.651Z,100915.27
2019-05-06T09:37:57.102Z,100922.87
2019-05-06T09:40:28.467Z,100926.30
2019-05-06T09:42:59.869Z,100923.86
2019-05-06T09:45:32.984Z,100925.45
2019-05-06T09:48:15.715Z,100927.11
2019-05-06T09:50:48.630Z,100929.80
2019-05-06T09:53:25.578Z,100934.71
2019-05-06T09:56:03.411Z,100929.64
2019-05-06T09:58:36.290Z,100930.13
2019-05-06T10:01:09.054Z,100929.16
2019-05-06T10:03:42.624Z,100930.52
2019-05-06T10:06:13.888Z,100928.87
2019-05-06T10:08:45.797Z,100925.94
2019-05-06T10:11:17.335Z,100924.84
2019-05-06T10:13:48.738Z,100921.11
2019-05-06T10:16:20.385Z,100919.58
2019-05-06T10:18:52.487Z,100917.30
2019-05-06T10:21:25.262Z,100914.27
2019-05-06T10:23:56.771Z,100918.38
2019-05-06T10:26:32.601Z,100913.38
2019-05-06T10:29:06.706Z,100910.27
2019-05-06T10:31:39.870Z,100903.60
2019-05-06T10:34:13.832Z,100901.42
2019-05-06T10:37:19.008Z,100894.02
2019-05-06T10:40:13.494Z,100895.34
2019-05-06T10:42:55.119Z,100889.23
2019-05-06T10:45:32.695Z,100895.98
2019-05-06T10:48:04.093Z,100897.59
2019-05-06T10:50:37.176Z,100900.23
2019-05-06T10:53:23.375Z,100892.64
2019-05-06T10:55:55.849Z,100897.00
2019-05-06T10:58:27.794Z,100894.60
2019-05-06T11:01:12.778Z,100895.40
2019-05-06T11:03:44.261Z,100898.02
2019-05-06T11:06:15.751Z,100895.91
2019-05-06T11:08:47.255Z,100891.47
2019-05-06T11:11:31.639Z,100895.49
2019-05-06T11:13:52.218Z,100891.77
2019-05-06T11:16:23.891Z,100894.84
2019-05-06T11:18:55.375Z,100898.41
2019-05-06T11:21:26.808Z,100898.34
2019-05-06T11:23:58.145Z,100896.14
2019-05-06T11:26:29.750Z,100899.56
2019-05-06T11:29:05.604Z,100900.77
2019-05-06T11:31:38.576Z,100896.91
2019-05-06T11:34:12.631Z,100891.52
2019-05-06T11:36:43.971Z,100884.83
2019-05-06T11:39:15.337Z,100887.17
2019-05-06T11:42:01.439Z,100886.70
2019-05-06T11:44:23.564Z,100879.25
2019-05-06T11:46:53.773Z,100881.21
2019-05-06T11:49:25.081Z,100874.73
2019-05-06T11:52:02.542Z,100870.02
2019-05-06T11:54:42.287Z,100876.31
2019-05-06T11:57:14.485Z,100871.73
2019-05-06T11:59:45.826Z,100866.56
2019-05-06T12:02:19.863Z,100860.91
2019-05-06T12:04:52.919Z,100859.80
2019-05-06T12:07:24.886Z,100851.52
2019-05-06T12:09:56.623Z,100852.30
2019-05-06T12:12:27.883Z,100851.94
2019-05-06T12:14:59.208Z,100856.73
2019-05-06T12:17:31.813Z,100857.14
2019-05-06T12:20:03.717Z,100860.59
2019-05-06T12:22:38.164Z,100865.65
2019-05-06T12:25:14.396Z,100869.92
2019-05-06T12:27:47.660Z,100876.30
2019-05-06T12:30:23.602Z,100867.34
2019-05-06T12:33:03.912Z,100867.05
2019-05-06T12:35:37.331Z,100868.89
2019-05-06T12:38:23.879Z,100867.26
2019-05-06T12:40:43.305Z,100868.06
2019-05-06T12:43:14.450Z,100866.56
2019-05-06T12:45:56.794Z,100856.53
2019-05-06T12:48:29.871Z,100862.44
2019-05-06T12:51:03.137Z,100851.45
2019-05-06T12:53:34.770Z,100855.08
2019-05-06T12:56:08.775Z,100850.16
2019-05-06T12:58:44.065Z,100851.97
2019-05-06T13:01:14.405Z,100848.42
2019-05-06T13:03:45.952Z,100855.42
2019-05-06T13:06:17.546Z,100850.52
2019-05-06T13:08:58.924Z,100845.66
2019-05-06T13:11:23.786Z,100850.42
2019-05-06T13:14:00.844Z,100845.13
2019-05-06T13:16:33.321Z,100842.11
2019-05-06T13:19:07.829Z,100839.52
2019-05-06T13:21:39.302Z,100838.66
2019-05-06T13:24:36.013Z,100835.97
2019-05-06T13:27:12.421Z,100840.37
2019-05-06T13:29:43.255Z,100829.73
2019-05-06T13:32:16.237Z,100831.94
2019-05-06T13:34:47.670Z,100836.35
2019-05-06T13:37:19.238Z,100830.16
2019-05-06T13:39:52.962Z,100826.63
2019-05-06T13:42:25.561Z,100835.03
2019-05-06T13:44:57.259Z,100827.50
2019-05-06T13:47:45.421Z,100825.80
2019-05-06T13:50:19.637Z,100833.22
2019-05-06T13:53:07.772Z,100814.76
2019-05-06T13:55:27.218Z,100810.14
2019-05-06T13:57:58.550Z,100811.61
2019-05-06T14:00:32.852Z,100806.45
2019-05-06T14:03:04.145Z,100805.64
2019-05-06T14:05:35.625Z,100798.41
2019-05-06T14:08:07.033Z,100800.36
2019-05-06T14:10:38.472Z,100796.92
2019-05-06T14:13:09.944Z,100798.69
2019-05-06T14:15:42.049Z,100799.52
2019-05-06T14:18:13.654Z,100800.88
2019-05-06T14:20:47.441Z,100796.87
2019-05-06T14:23:18.786Z,100800.81
2019-05-06T14:26:04.302Z,100797.32
2019-05-06T14:28:37.309Z,100797.80
2019-05-06T14:31:10.268Z,100791.59
2019-05-06T14:33:42.780Z,100802.23
2019-05-06T14:36:14.483Z,100792.48
2019-05-06T14:38:46.104Z,100800.89
2019-05-06T14:41:26.118Z,100786.72
2019-05-06T14:43:52.958Z,100789.37
2019-05-06T14:46:24.472Z,100789.37
2019-05-06T14:48:56.098Z,100788.92
2019-05-06T14:51:29.109Z,100795.55
2019-05-06T14:54:00.472Z,100796.47
2019-05-06T14:56:33.493Z,100793.80
2019-05-06T14:59:06.083Z,100796.91
2019-05-06T15:01:38.540Z,100796.47
2019-05-06T15:04:12.278Z,100801.77
2019-05-06T15:06:43.097Z,100801.75
2019-05-06T15:09:14.776Z,100798.18
2019-05-06T15:11:46.231Z,100801.28
2019-05-06T15:14:17.699Z,100802.56
2019-05-06T15:16:49.097Z,100801.67
2019-05-06T15:19:22.588Z,100800.30
2019-05-06T15:21:53.968Z,100786.14
2019-05-06T15:24:25.402Z,100809.59
2019-05-06T15:26:56.737Z,100802.55
2019-05-06T15:29:28.629Z,100801.66
2019-05-06T15:32:02.354Z,100801.64
2019-05-06T15:34:53.829Z,100811.38
2019-05-06T15:37:24.627Z,100803.87
2019-05-06T15:39:55.709Z,100810.06
2019-05-06T15:42:27.022Z,100810.92
2019-05-06T15:44:58.322Z,100812.66
2019-05-06T15:47:32.276Z,100813.16
2019-05-06T15:50:05.007Z,100810.50
2019-05-06T15:52:36.530Z,100807.34
2019-05-06T15:55:08.437Z,100813.12
2019-05-06T15:57:39.812Z,100814.34
2019-05-06T16:00:14.888Z,100808.47
2019-05-06T16:02:46.344Z,100811.57
2019-05-06T16:05:20.045Z,100811.59
2019-05-06T16:07:52.951Z,100808.48
2019-05-06T16:10:24.557Z,100811.55
2019-05-06T16:12:55.921Z,100810.66
2019-05-06T16:15:27.483Z,100813.35
2019-05-06T16:17:58.796Z,100806.25
2019-05-06T16:20:30.072Z,100808.48
2019-05-06T16:23:07.110Z,100813.80
2019-05-06T16:25:38.395Z,100811.15
2019-05-06T16:28:23.865Z,100813.78
2019-05-06T16:31:02.467Z,100817.34
2019-05-06T16:33:34.033Z,100817.29
2019-05-06T16:36:05.497Z,100812.45
2019-05-06T16:38:47.089Z,100812.36
2019-05-06T16:41:22.487Z,100808.85
2019-05-06T16:43:53.826Z,100813.34
2019-05-06T16:46:25.164Z,100809.78
2019-05-06T16:48:56.598Z,100808.47
2019-05-06T16:51:29.593Z,100807.58
2019-05-06T16:54:19.926Z,100806.73
2019-05-06T16:57:05.132Z,100806.72
2019-05-06T16:59:36.495Z,100805.78
2019-05-06T17:02:16.232Z,100800.48
2019-05-06T17:04:49.293Z,100799.17
2019-05-06T17:07:22.511Z,100802.31
2019-05-06T17:09:53.869Z,100800.14
2019-05-06T17:12:25.252Z,100805.40
2019-05-06T17:14:56.690Z,100799.19
2019-05-06T17:17:39.743Z,100799.19
2019-05-06T17:20:03.066Z,100802.69
2019-05-06T17:22:36.245Z,100806.67
2019-05-06T17:25:07.841Z,100803.54
2019-05-06T17:27:40.693Z,100803.10
2019-05-06T17:30:33.062Z,100804.00
2019-05-06T17:33:22.546Z,100807.08
2019-05-06T17:35:54.001Z,100811.50
2019-05-06T17:38:37.899Z,100816.77
2019-05-06T17:41:09.406Z,100816.28
2019-05-06T17:43:41.383Z,100817.14
2019-05-06T17:46:15.817Z,100820.65
2019-05-06T17:48:49.108Z,100820.49
2019-05-06T17:51:22.076Z,100823.55
2019-05-06T17:53:55.165Z,100822.63
2019-05-06T17:56:26.615Z,100824.68
2019-05-06T17:58:58.066Z,100820.22
2019-05-06T18:01:32.625Z,100821.52
2019-05-06T18:04:04.730Z,100820.18
2019-05-06T18:06:36.282Z,100820.64
2019-05-06T18:09:09.576Z,100826.33
2019-05-06T18:11:57.562Z,100819.27
2019-05-06T18:14:16.771Z,100821.41
2019-05-06T18:16:48.215Z,100824.93
2019-05-06T18:19:22.121Z,100825.72
2019-05-06T18:21:53.017Z,100829.62
2019-05-06T18:24:24.551Z,100829.67
2019-05-06T18:26:56.057Z,100828.73
2019-05-06T18:29:27.375Z,100830.14
2019-05-06T18:31:58.876Z,100827.05
2019-05-06T18:34:32.586Z,100828.38
2019-05-06T18:37:03.883Z,100831.59
2019-05-06T18:39:36.271Z,100832.34
2019-05-06T18:42:17.065Z,100832.14
2019-05-06T18:44:42.262Z,100832.05
2019-05-06T18:47:13.924Z,100836.34
2019-05-06T18:49:45.335Z,100837.55
2019-05-06T18:52:16.826Z,100838.31
2019-05-06T18:54:48.539Z,100840.03
2019-05-06T18:57:19.814Z,100842.66
2019-05-06T18:59:53.345Z,100833.84
2019-05-06T19:02:26.804Z,100832.52
2019-05-06T19:05:13.086Z,100841.36
2019-05-06T19:07:46.780Z,100842.12
2019-05-06T19:10:34.094Z,100841.67
2019-05-06T19:13:08.612Z,100845.20
2019-05-06T19:15:38.932Z,100846.84
2019-05-06T19:18:12.815Z,100854.35
2019-05-06T19:20:43.863Z,100855.34
2019-05-06T19:23:15.550Z,100859.00
2019-05-06T19:25:47.159Z,100863.48
2019-05-06T19:28:21.994Z,100864.87
2019-05-06T19:30:54.147Z,100863.05
2019-05-06T19:33:26.212Z,100862.00
2019-05-06T19:35:57.577Z,100863.86
2019-05-06T19:38:29.058Z,100867.29
2019-05-06T19:41:02.037Z,100883.11
2019-05-06T19:43:33.714Z,100877.59
2019-05-06T19:46:05.516Z,100879.00
2019-05-06T19:48:37.256Z,100878.03
2019-05-06T19:51:08.967Z,100877.17
2019-05-06T19:53:42.705Z,100877.80
2019-05-06T19:56:13.863Z,100875.50
2019-05-06T19:58:45.470Z,100871.66
2019-05-06T20:01:17.017Z,100874.61
2019-05-06T20:03:48.453Z,100868.95
2019-05-06T20:06:29.088Z,100875.23
2019-05-06T20:09:27.735Z,100880.45
2019-05-06T20:12:02.829Z,100877.03
2019-05-06T20:14:34.186Z,100875.91
2019-05-06T20:17:13.388Z,100875.44
2019-05-06T20:19:46.587Z,100875.80
2019-05-06T20:22:19.001Z,100874.08
2019-05-06T20:25:03.319Z,100879.09
2019-05-06T20:27:34.757Z,100872.69
2019-05-06T20:30:07.780Z,100870.93
2019-05-06T20:32:39.394Z,100870.39
2019-05-06T20:35:14.249Z,100873.55
2019-05-06T20:37:45.666Z,100875.54
2019-05-06T20:40:17.960Z,100876.23
2019-05-06T20:42:49.446Z,100875.77
2019-05-06T20:45:22.409Z,100873.63
2019-05-06T20:47:54.003Z,100867.91
2019-05-06T20:50:28.314Z,100866.84
2019-05-06T20:53:00.724Z,100868.59
2019-05-06T20:55:35.279Z,100866.32
2019-05-06T20:58:05.781Z,100871.17
2019-05-06T21:00:37.251Z,100868.50
2019-05-06T21:03:12.278Z,100875.69
2019-05-06T21:05:43.767Z,100875.88
2019-05-06T21:08:15.342Z,100864.94
2019-05-06T21:10:49.502Z,100867.61
2019-05-06T21:13:31.450Z,100869.58
2019-05-06T21:15:58.822Z,100861.03
2019-05-06T21:18:32.471Z,100863.40
2019-05-06T21:21:03.836Z,100864.19
2019-05-06T21:23:35.321Z,100857.38
2019-05-06T21:26:15.796Z,100863.80
2019-05-06T21:28:47.134Z,100862.94
2019-05-06T21:31:23.012Z,100869.03
2019-05-06T21:33:56.088Z,100870.10
2019-05-06T21:36:29.076Z,100865.22
2019-05-06T21:39:01.993Z,100860.63
2019-05-06T21:41:35.139Z,100868.60
2019-05-06T21:44:08.318Z,100867.99
2019-05-06T21:46:43.143Z,100862.08
2019-05-06T21:49:15.292Z,100857.63
2019-05-06T21:51:46.778Z,100858.75
2019-05-06T21:54:18.040Z,100852.87
2019-05-06T21:56:49.807Z,100859.34
2019-05-06T21:59:21.235Z,100855.78
2019-05-06T22:01:55.818Z,100850.51
2019-05-06T22:04:28.622Z,100838.27
2019-05-06T22:07:02.872Z,100843.77
2019-05-06T22:09:37.004Z,100841.09
